Terminal Aerodrome Forecast
Issued by NWS Northern Indiana

Home | Current Version | Previous Version | Text Only | Print | Product List | Glossary On
Versions: 1 2 3 4 5 6 7 8 9 10 11 12 13 14
000
FTUS43 KIWX 201700
TAFFWA
TAF
KFWA 201730Z 2018/2118 10004KT P6SM BKN035
     FM210100 16003KT P6SM SKC
      TEMPO 2109/2112 3SM BR=

USA.gov is the U.S. government's official web portal to all federal, state and local government web resources and services.